sensor_id;sensor_type;location;lat;lon;timestamp;P1;durP1;ratioP1;P2;durP2;ratioP2
20415;SDS011;10367;52.202;5.996;2023-05-07T00:00:52;33.03;;;23.57;;
20415;SDS011;10367;52.202;5.996;2023-05-07T00:03:21;25.83;;;20.83;;
20415;SDS011;10367;52.202;5.996;2023-05-07T00:05:55;41.23;;;25.50;;
20415;SDS011;10367;52.202;5.996;2023-05-07T00:08:28;31.17;;;23.27;;
20415;SDS011;10367;52.202;5.996;2023-05-07T00:11:02;32.93;;;24.87;;
20415;SDS011;10367;52.202;5.996;2023-05-07T00:13:34;30.80;;;22.47;;
20415;SDS011;10367;52.202;5.996;2023-05-07T00:16:03;29.27;;;22.50;;
20415;SDS011;10367;52.202;5.996;2023-05-07T00:18:32;29.77;;;21.23;;
20415;SDS011;10367;52.202;5.996;2023-05-07T00:21:00;28.00;;;21.97;;
20415;SDS011;10367;52.202;5.996;2023-05-07T00:23:30;29.80;;;22.47;;
20415;SDS011;10367;52.202;5.996;2023-05-07T00:25:59;31.53;;;22.63;;
20415;SDS011;10367;52.202;5.996;2023-05-07T00:28:28;28.97;;;20.87;;
20415;SDS011;10367;52.202;5.996;2023-05-07T00:30:57;30.83;;;21.73;;
20415;SDS011;10367;52.202;5.996;2023-05-07T00:33:25;33.63;;;22.50;;
20415;SDS011;10367;52.202;5.996;2023-05-07T00:35:57;36.10;;;23.87;;
20415;SDS011;10367;52.202;5.996;2023-05-07T00:38:27;33.17;;;23.40;;
20415;SDS011;10367;52.202;5.996;2023-05-07T00:40:57;29.97;;;20.97;;
20415;SDS011;10367;52.202;5.996;2023-05-07T00:43:26;35.90;;;24.07;;
20415;SDS011;10367;52.202;5.996;2023-05-07T00:46:01;29.47;;;23.80;;
20415;SDS011;10367;52.202;5.996;2023-05-07T00:48:30;31.43;;;23.50;;
20415;SDS011;10367;52.202;5.996;2023-05-07T00:50:59;28.97;;;21.77;;
20415;SDS011;10367;52.202;5.996;2023-05-07T00:53:30;35.13;;;24.63;;
20415;SDS011;10367;52.202;5.996;2023-05-07T00:56:00;31.57;;;21.70;;
20415;SDS011;10367;52.202;5.996;2023-05-07T00:58:29;28.60;;;20.67;;
20415;SDS011;10367;52.202;5.996;2023-05-07T01:00:59;29.50;;;21.00;;
20415;SDS011;10367;52.202;5.996;2023-05-07T01:03:28;33.20;;;23.13;;
20415;SDS011;10367;52.202;5.996;2023-05-07T01:05:57;28.97;;;22.33;;
20415;SDS011;10367;52.202;5.996;2023-05-07T01:08:29;29.73;;;22.80;;
20415;SDS011;10367;52.202;5.996;2023-05-07T01:11:00;34.97;;;23.87;;
20415;SDS011;10367;52.202;5.996;2023-05-07T01:13:30;34.67;;;23.73;;
20415;SDS011;10367;52.202;5.996;2023-05-07T01:15:59;23.93;;;20.20;;
20415;SDS011;10367;52.202;5.996;2023-05-07T01:18:28;36.33;;;22.60;;
20415;SDS011;10367;52.202;5.996;2023-05-07T01:21:00;29.30;;;21.87;;
20415;SDS011;10367;52.202;5.996;2023-05-07T01:23:34;27.27;;;20.87;;
20415;SDS011;10367;52.202;5.996;2023-05-07T01:26:06;24.63;;;19.30;;
20415;SDS011;10367;52.202;5.996;2023-05-07T01:28:35;28.30;;;21.07;;
20415;SDS011;10367;52.202;5.996;2023-05-07T01:31:04;27.90;;;21.43;;
20415;SDS011;10367;52.202;5.996;2023-05-07T01:33:38;36.20;;;23.73;;
20415;SDS011;10367;52.202;5.996;2023-05-07T01:36:12;28.07;;;21.93;;
20415;SDS011;10367;52.202;5.996;2023-05-07T01:38:46;32.87;;;21.93;;
20415;SDS011;10367;52.202;5.996;2023-05-07T01:41:15;28.57;;;21.60;;
20415;SDS011;10367;52.202;5.996;2023-05-07T01:43:44;35.40;;;22.83;;
20415;SDS011;10367;52.202;5.996;2023-05-07T01:46:13;24.07;;;20.90;;
20415;SDS011;10367;52.202;5.996;2023-05-07T01:48:43;31.17;;;22.37;;
20415;SDS011;10367;52.202;5.996;2023-05-07T01:51:13;25.27;;;21.30;;
20415;SDS011;10367;52.202;5.996;2023-05-07T01:53:41;31.63;;;21.23;;
20415;SDS011;10367;52.202;5.996;2023-05-07T01:56:14;30.67;;;23.13;;
20415;SDS011;10367;52.202;5.996;2023-05-07T01:58:43;29.70;;;23.03;;
20415;SDS011;10367;52.202;5.996;2023-05-07T02:01:12;26.10;;;22.60;;
20415;SDS011;10367;52.202;5.996;2023-05-07T02:03:41;31.10;;;23.43;;
20415;SDS011;10367;52.202;5.996;2023-05-07T02:06:10;34.30;;;22.03;;
20415;SDS011;10367;52.202;5.996;2023-05-07T02:08:39;26.83;;;21.80;;
20415;SDS011;10367;52.202;5.996;2023-05-07T02:11:09;34.80;;;24.60;;
20415;SDS011;10367;52.202;5.996;2023-05-07T02:13:38;33.37;;;23.57;;
20415;SDS011;10367;52.202;5.996;2023-05-07T02:16:07;34.83;;;24.20;;
20415;SDS011;10367;52.202;5.996;2023-05-07T02:18:36;34.37;;;23.17;;
20415;SDS011;10367;52.202;5.996;2023-05-07T02:21:04;31.60;;;23.67;;
20415;SDS011;10367;52.202;5.996;2023-05-07T02:23:33;37.23;;;25.47;;
20415;SDS011;10367;52.202;5.996;2023-05-07T02:26:03;33.20;;;24.07;;
20415;SDS011;10367;52.202;5.996;2023-05-07T02:31:03;39.03;;;25.67;;
20415;SDS011;10367;52.202;5.996;2023-05-07T02:33:32;38.47;;;26.23;;
20415;SDS011;10367;52.202;5.996;2023-05-07T02:36:05;33.97;;;24.30;;
20415;SDS011;10367;52.202;5.996;2023-05-07T02:38:34;40.07;;;27.40;;
20415;SDS011;10367;52.202;5.996;2023-05-07T02:41:03;31.70;;;23.90;;
20415;SDS011;10367;52.202;5.996;2023-05-07T02:43:32;30.67;;;22.13;;
20415;SDS011;10367;52.202;5.996;2023-05-07T02:46:02;29.43;;;21.40;;
20415;SDS011;10367;52.202;5.996;2023-05-07T02:48:32;35.90;;;24.73;;
20415;SDS011;10367;52.202;5.996;2023-05-07T02:51:01;38.83;;;26.73;;
20415;SDS011;10367;52.202;5.996;2023-05-07T02:53:33;30.93;;;23.00;;
20415;SDS011;10367;52.202;5.996;2023-05-07T02:56:01;40.17;;;27.30;;
20415;SDS011;10367;52.202;5.996;2023-05-07T02:58:30;41.70;;;29.03;;
20415;SDS011;10367;52.202;5.996;2023-05-07T03:00:59;42.00;;;28.00;;
20415;SDS011;10367;52.202;5.996;2023-05-07T03:03:29;43.17;;;28.60;;
20415;SDS011;10367;52.202;5.996;2023-05-07T03:05:58;37.20;;;27.30;;
20415;SDS011;10367;52.202;5.996;2023-05-07T03:08:26;45.53;;;29.77;;
20415;SDS011;10367;52.202;5.996;2023-05-07T03:10:55;38.37;;;28.03;;
20415;SDS011;10367;52.202;5.996;2023-05-07T03:13:24;43.00;;;27.97;;
20415;SDS011;10367;52.202;5.996;2023-05-07T03:15:53;44.60;;;29.33;;
20415;SDS011;10367;52.202;5.996;2023-05-07T03:18:22;44.07;;;28.27;;
20415;SDS011;10367;52.202;5.996;2023-05-07T03:20:52;41.03;;;28.43;;
20415;SDS011;10367;52.202;5.996;2023-05-07T03:23:23;40.00;;;26.70;;
20415;SDS011;10367;52.202;5.996;2023-05-07T03:25:52;50.37;;;31.60;;
20415;SDS011;10367;52.202;5.996;2023-05-07T03:28:20;44.80;;;29.80;;
20415;SDS011;10367;52.202;5.996;2023-05-07T03:30:49;47.43;;;28.73;;
20415;SDS011;10367;52.202;5.996;2023-05-07T03:33:18;46.33;;;28.83;;
20415;SDS011;10367;52.202;5.996;2023-05-07T03:35:47;48.47;;;29.03;;
20415;SDS011;10367;52.202;5.996;2023-05-07T03:38:17;44.53;;;30.43;;
20415;SDS011;10367;52.202;5.996;2023-05-07T03:40:46;51.93;;;33.23;;
20415;SDS011;10367;52.202;5.996;2023-05-07T03:43:14;44.00;;;28.93;;
20415;SDS011;10367;52.202;5.996;2023-05-07T03:45:43;52.53;;;32.50;;
20415;SDS011;10367;52.202;5.996;2023-05-07T03:48:12;38.73;;;26.80;;
20415;SDS011;10367;52.202;5.996;2023-05-07T03:50:40;51.80;;;32.23;;
20415;SDS011;10367;52.202;5.996;2023-05-07T03:53:09;45.67;;;31.07;;
20415;SDS011;10367;52.202;5.996;2023-05-07T03:55:39;48.03;;;30.03;;
20415;SDS011;10367;52.202;5.996;2023-05-07T03:58:08;51.10;;;31.17;;
20415;SDS011;10367;52.202;5.996;2023-05-07T04:00:38;45.60;;;30.70;;
20415;SDS011;10367;52.202;5.996;2023-05-07T04:03:07;47.70;;;27.90;;
20415;SDS011;10367;52.202;5.996;2023-05-07T04:05:37;53.17;;;31.70;;
20415;SDS011;10367;52.202;5.996;2023-05-07T04:08:05;49.70;;;30.50;;
20415;SDS011;10367;52.202;5.996;2023-05-07T04:10:35;46.13;;;29.13;;
20415;SDS011;10367;52.202;5.996;2023-05-07T04:13:05;40.53;;;25.87;;
20415;SDS011;10367;52.202;5.996;2023-05-07T04:15:34;47.53;;;28.03;;
20415;SDS011;10367;52.202;5.996;2023-05-07T04:18:04;51.67;;;32.20;;
20415;SDS011;10367;52.202;5.996;2023-05-07T04:20:33;43.73;;;28.60;;
20415;SDS011;10367;52.202;5.996;2023-05-07T04:23:03;53.67;;;32.20;;
20415;SDS011;10367;52.202;5.996;2023-05-07T04:25:32;47.93;;;31.27;;
20415;SDS011;10367;52.202;5.996;2023-05-07T04:28:01;55.17;;;30.73;;
20415;SDS011;10367;52.202;5.996;2023-05-07T04:30:31;49.90;;;30.53;;
20415;SDS011;10367;52.202;5.996;2023-05-07T04:33:00;53.47;;;32.77;;
20415;SDS011;10367;52.202;5.996;2023-05-07T04:35:28;56.17;;;32.93;;
20415;SDS011;10367;52.202;5.996;2023-05-07T04:37:57;56.50;;;32.73;;
20415;SDS011;10367;52.202;5.996;2023-05-07T04:40:26;47.33;;;30.67;;
20415;SDS011;10367;52.202;5.996;2023-05-07T04:42:55;54.30;;;31.97;;
20415;SDS011;10367;52.202;5.996;2023-05-07T04:45:24;47.97;;;30.40;;
20415;SDS011;10367;52.202;5.996;2023-05-07T04:47:54;57.87;;;32.67;;
20415;SDS011;10367;52.202;5.996;2023-05-07T04:50:22;69.10;;;35.77;;
20415;SDS011;10367;52.202;5.996;2023-05-07T04:52:51;62.37;;;33.77;;
20415;SDS011;10367;52.202;5.996;2023-05-07T04:55:20;45.33;;;28.77;;
20415;SDS011;10367;52.202;5.996;2023-05-07T04:57:49;58.40;;;34.50;;
20415;SDS011;10367;52.202;5.996;2023-05-07T05:00:18;55.00;;;31.60;;
20415;SDS011;10367;52.202;5.996;2023-05-07T05:02:47;55.93;;;33.60;;
20415;SDS011;10367;52.202;5.996;2023-05-07T05:05:18;53.93;;;31.30;;
20415;SDS011;10367;52.202;5.996;2023-05-07T05:07:47;66.70;;;35.17;;
20415;SDS011;10367;52.202;5.996;2023-05-07T05:10:15;55.60;;;32.40;;
20415;SDS011;10367;52.202;5.996;2023-05-07T05:12:44;61.93;;;33.70;;
20415;SDS011;10367;52.202;5.996;2023-05-07T05:15:13;49.17;;;29.87;;
20415;SDS011;10367;52.202;5.996;2023-05-07T05:17:46;48.53;;;29.07;;
20415;SDS011;10367;52.202;5.996;2023-05-07T05:20:15;47.77;;;28.30;;
20415;SDS011;10367;52.202;5.996;2023-05-07T05:22:45;49.00;;;28.87;;
20415;SDS011;10367;52.202;5.996;2023-05-07T05:25:14;51.97;;;30.60;;
20415;SDS011;10367;52.202;5.996;2023-05-07T05:27:43;44.90;;;28.93;;
20415;SDS011;10367;52.202;5.996;2023-05-07T05:30:12;46.50;;;29.33;;
20415;SDS011;10367;52.202;5.996;2023-05-07T05:32:41;51.17;;;31.20;;
20415;SDS011;10367;52.202;5.996;2023-05-07T05:35:09;43.13;;;28.37;;
20415;SDS011;10367;52.202;5.996;2023-05-07T05:37:39;45.43;;;28.00;;
20415;SDS011;10367;52.202;5.996;2023-05-07T05:40:09;43.07;;;28.63;;
20415;SDS011;10367;52.202;5.996;2023-05-07T05:42:40;45.27;;;28.07;;
20415;SDS011;10367;52.202;5.996;2023-05-07T05:45:13;46.23;;;27.73;;
20415;SDS011;10367;52.202;5.996;2023-05-07T05:47:42;48.20;;;27.77;;
20415;SDS011;10367;52.202;5.996;2023-05-07T05:50:11;45.33;;;27.77;;
20415;SDS011;10367;52.202;5.996;2023-05-07T05:52:41;45.27;;;28.20;;
20415;SDS011;10367;52.202;5.996;2023-05-07T05:55:10;44.57;;;28.00;;
20415;SDS011;10367;52.202;5.996;2023-05-07T05:57:39;57.10;;;29.80;;
20415;SDS011;10367;52.202;5.996;2023-05-07T06:00:08;49.90;;;28.67;;
20415;SDS011;10367;52.202;5.996;2023-05-07T06:02:38;58.93;;;31.40;;
20415;SDS011;10367;52.202;5.996;2023-05-07T06:05:07;43.93;;;27.13;;
20415;SDS011;10367;52.202;5.996;2023-05-07T06:07:36;47.13;;;28.60;;
20415;SDS011;10367;52.202;5.996;2023-05-07T06:10:07;60.47;;;30.03;;
20415;SDS011;10367;52.202;5.996;2023-05-07T06:12:37;42.73;;;27.63;;
20415;SDS011;10367;52.202;5.996;2023-05-07T06:15:09;43.77;;;28.30;;
20415;SDS011;10367;52.202;5.996;2023-05-07T06:17:38;47.37;;;28.23;;
20415;SDS011;10367;52.202;5.996;2023-05-07T06:20:07;50.83;;;30.13;;
20415;SDS011;10367;52.202;5.996;2023-05-07T06:22:37;48.10;;;30.07;;
20415;SDS011;10367;52.202;5.996;2023-05-07T06:25:08;48.80;;;28.33;;
20415;SDS011;10367;52.202;5.996;2023-05-07T06:27:37;48.33;;;30.23;;
20415;SDS011;10367;52.202;5.996;2023-05-07T06:30:06;55.17;;;31.67;;
20415;SDS011;10367;52.202;5.996;2023-05-07T06:32:37;50.80;;;30.80;;
20415;SDS011;10367;52.202;5.996;2023-05-07T06:35:08;51.10;;;28.87;;
20415;SDS011;10367;52.202;5.996;2023-05-07T06:37:38;57.20;;;27.80;;
20415;SDS011;10367;52.202;5.996;2023-05-07T06:40:12;48.97;;;28.97;;
20415;SDS011;10367;52.202;5.996;2023-05-07T06:42:44;45.10;;;29.03;;
20415;SDS011;10367;52.202;5.996;2023-05-07T06:45:12;45.77;;;30.50;;
20415;SDS011;10367;52.202;5.996;2023-05-07T06:47:41;51.13;;;28.47;;
20415;SDS011;10367;52.202;5.996;2023-05-07T06:50:12;49.93;;;30.53;;
20415;SDS011;10367;52.202;5.996;2023-05-07T06:52:42;44.67;;;28.80;;
20415;SDS011;10367;52.202;5.996;2023-05-07T06:55:13;46.90;;;29.03;;
20415;SDS011;10367;52.202;5.996;2023-05-07T06:57:42;56.37;;;31.27;;
20415;SDS011;10367;52.202;5.996;2023-05-07T07:00:11;46.37;;;29.30;;
20415;SDS011;10367;52.202;5.996;2023-05-07T07:02:40;48.23;;;30.70;;
20415;SDS011;10367;52.202;5.996;2023-05-07T07:05:09;47.87;;;29.67;;
20415;SDS011;10367;52.202;5.996;2023-05-07T07:07:38;49.70;;;27.73;;
20415;SDS011;10367;52.202;5.996;2023-05-07T07:10:07;58.73;;;32.73;;
20415;SDS011;10367;52.202;5.996;2023-05-07T07:12:38;53.77;;;31.57;;
20415;SDS011;10367;52.202;5.996;2023-05-07T07:15:07;47.83;;;30.03;;
20415;SDS011;10367;52.202;5.996;2023-05-07T07:17:36;53.17;;;31.20;;
20415;SDS011;10367;52.202;5.996;2023-05-07T07:20:08;56.00;;;31.50;;
20415;SDS011;10367;52.202;5.996;2023-05-07T07:22:40;50.47;;;29.80;;
20415;SDS011;10367;52.202;5.996;2023-05-07T07:25:09;49.87;;;29.83;;
20415;SDS011;10367;52.202;5.996;2023-05-07T07:27:40;48.13;;;30.83;;
20415;SDS011;10367;52.202;5.996;2023-05-07T07:30:09;56.37;;;30.67;;
20415;SDS011;10367;52.202;5.996;2023-05-07T07:32:38;52.83;;;31.10;;
20415;SDS011;10367;52.202;5.996;2023-05-07T07:35:07;48.60;;;29.97;;
20415;SDS011;10367;52.202;5.996;2023-05-07T07:37:37;48.50;;;29.70;;
20415;SDS011;10367;52.202;5.996;2023-05-07T07:40:06;52.73;;;30.83;;
20415;SDS011;10367;52.202;5.996;2023-05-07T07:42:36;46.83;;;30.00;;
20415;SDS011;10367;52.202;5.996;2023-05-07T07:45:09;50.73;;;31.17;;
20415;SDS011;10367;52.202;5.996;2023-05-07T07:47:38;45.17;;;30.53;;
20415;SDS011;10367;52.202;5.996;2023-05-07T07:50:08;53.53;;;32.67;;
20415;SDS011;10367;52.202;5.996;2023-05-07T07:52:51;48.57;;;30.40;;
20415;SDS011;10367;52.202;5.996;2023-05-07T07:55:20;43.07;;;28.47;;
20415;SDS011;10367;52.202;5.996;2023-05-07T07:57:49;49.53;;;29.87;;
20415;SDS011;10367;52.202;5.996;2023-05-07T08:00:20;40.90;;;28.10;;
20415;SDS011;10367;52.202;5.996;2023-05-07T08:02:49;43.57;;;30.10;;
20415;SDS011;10367;52.202;5.996;2023-05-07T08:05:18;44.67;;;29.03;;
20415;SDS011;10367;52.202;5.996;2023-05-07T08:07:47;43.50;;;29.83;;
20415;SDS011;10367;52.202;5.996;2023-05-07T08:10:18;43.53;;;28.27;;
20415;SDS011;10367;52.202;5.996;2023-05-07T08:12:50;41.57;;;27.90;;
20415;SDS011;10367;52.202;5.996;2023-05-07T08:15:20;37.30;;;27.27;;
20415;SDS011;10367;52.202;5.996;2023-05-07T08:17:49;40.63;;;27.70;;
20415;SDS011;10367;52.202;5.996;2023-05-07T08:20:18;40.60;;;29.13;;
20415;SDS011;10367;52.202;5.996;2023-05-07T08:22:47;44.47;;;28.97;;
20415;SDS011;10367;52.202;5.996;2023-05-07T08:25:16;41.00;;;27.60;;
20415;SDS011;10367;52.202;5.996;2023-05-07T08:27:44;42.70;;;29.57;;
20415;SDS011;10367;52.202;5.996;2023-05-07T08:30:13;36.97;;;28.13;;
20415;SDS011;10367;52.202;5.996;2023-05-07T08:32:44;41.90;;;27.10;;
20415;SDS011;10367;52.202;5.996;2023-05-07T08:35:13;38.57;;;27.37;;
20415;SDS011;10367;52.202;5.996;2023-05-07T08:37:41;40.80;;;27.40;;
20415;SDS011;10367;52.202;5.996;2023-05-07T08:40:11;39.33;;;29.07;;
20415;SDS011;10367;52.202;5.996;2023-05-07T08:42:40;41.80;;;28.77;;
20415;SDS011;10367;52.202;5.996;2023-05-07T08:45:10;43.03;;;28.60;;
20415;SDS011;10367;52.202;5.996;2023-05-07T08:47:40;45.00;;;29.53;;
20415;SDS011;10367;52.202;5.996;2023-05-07T08:50:13;38.37;;;27.63;;
20415;SDS011;10367;52.202;5.996;2023-05-07T08:52:42;48.90;;;30.70;;
20415;SDS011;10367;52.202;5.996;2023-05-07T08:55:10;40.73;;;29.13;;
20415;SDS011;10367;52.202;5.996;2023-05-07T08:57:41;38.17;;;27.90;;
20415;SDS011;10367;52.202;5.996;2023-05-07T09:00:10;36.40;;;28.33;;
20415;SDS011;10367;52.202;5.996;2023-05-07T09:02:39;42.10;;;29.30;;
20415;SDS011;10367;52.202;5.996;2023-05-07T09:05:10;36.20;;;27.33;;
20415;SDS011;10367;52.202;5.996;2023-05-07T09:07:39;40.90;;;29.17;;
20415;SDS011;10367;52.202;5.996;2023-05-07T09:10:08;38.47;;;30.17;;
20415;SDS011;10367;52.202;5.996;2023-05-07T09:12:37;42.83;;;29.60;;
20415;SDS011;10367;52.202;5.996;2023-05-07T09:15:07;40.00;;;29.67;;
20415;SDS011;10367;52.202;5.996;2023-05-07T09:17:36;37.07;;;28.33;;
20415;SDS011;10367;52.202;5.996;2023-05-07T09:20:06;43.47;;;30.20;;
20415;SDS011;10367;52.202;5.996;2023-05-07T09:22:38;40.53;;;28.80;;
20415;SDS011;10367;52.202;5.996;2023-05-07T09:25:07;44.97;;;31.33;;
20415;SDS011;10367;52.202;5.996;2023-05-07T09:27:37;35.00;;;27.57;;
20415;SDS011;10367;52.202;5.996;2023-05-07T09:30:06;46.17;;;31.60;;
20415;SDS011;10367;52.202;5.996;2023-05-07T09:32:35;37.47;;;28.37;;
20415;SDS011;10367;52.202;5.996;2023-05-07T09:35:06;46.53;;;31.77;;
20415;SDS011;10367;52.202;5.996;2023-05-07T09:37:45;43.43;;;31.47;;
20415;SDS011;10367;52.202;5.996;2023-05-07T09:40:20;40.97;;;29.30;;
20415;SDS011;10367;52.202;5.996;2023-05-07T09:42:50;42.07;;;30.67;;
20415;SDS011;10367;52.202;5.996;2023-05-07T09:45:22;42.10;;;31.13;;
20415;SDS011;10367;52.202;5.996;2023-05-07T09:48:05;46.03;;;31.73;;
20415;SDS011;10367;52.202;5.996;2023-05-07T09:50:35;40.20;;;30.60;;
20415;SDS011;10367;52.202;5.996;2023-05-07T09:53:07;42.20;;;30.53;;
20415;SDS011;10367;52.202;5.996;2023-05-07T09:55:38;42.20;;;30.40;;
20415;SDS011;10367;52.202;5.996;2023-05-07T09:58:08;42.73;;;31.23;;
20415;SDS011;10367;52.202;5.996;2023-05-07T10:00:40;47.10;;;32.90;;
20415;SDS011;10367;52.202;5.996;2023-05-07T10:03:11;45.53;;;30.33;;
20415;SDS011;10367;52.202;5.996;2023-05-07T10:05:42;39.67;;;29.93;;
20415;SDS011;10367;52.202;5.996;2023-05-07T10:08:13;38.20;;;30.33;;
20415;SDS011;10367;52.202;5.996;2023-05-07T10:10:43;43.70;;;29.33;;
20415;SDS011;10367;52.202;5.996;2023-05-07T10:13:13;38.50;;;29.67;;
20415;SDS011;10367;52.202;5.996;2023-05-07T10:15:41;44.97;;;31.30;;
20415;SDS011;10367;52.202;5.996;2023-05-07T10:18:12;46.17;;;32.33;;
20415;SDS011;10367;52.202;5.996;2023-05-07T10:20:42;45.47;;;31.60;;
20415;SDS011;10367;52.202;5.996;2023-05-07T10:23:14;40.37;;;30.00;;
20415;SDS011;10367;52.202;5.996;2023-05-07T10:25:50;41.17;;;30.40;;
20415;SDS011;10367;52.202;5.996;2023-05-07T10:28:26;40.07;;;29.67;;
20415;SDS011;10367;52.202;5.996;2023-05-07T10:30:59;43.23;;;31.10;;
20415;SDS011;10367;52.202;5.996;2023-05-07T10:33:38;41.77;;;31.63;;
20415;SDS011;10367;52.202;5.996;2023-05-07T10:36:08;40.00;;;30.93;;
20415;SDS011;10367;52.202;5.996;2023-05-07T10:38:37;37.23;;;30.07;;
20415;SDS011;10367;52.202;5.996;2023-05-07T10:41:07;36.33;;;29.17;;
20415;SDS011;10367;52.202;5.996;2023-05-07T10:43:39;44.90;;;31.07;;
20415;SDS011;10367;52.202;5.996;2023-05-07T10:46:09;32.03;;;27.90;;
20415;SDS011;10367;52.202;5.996;2023-05-07T10:51:41;38.87;;;29.97;;
20415;SDS011;10367;52.202;5.996;2023-05-07T10:54:18;44.77;;;31.70;;
20415;SDS011;10367;52.202;5.996;2023-05-07T10:56:48;40.37;;;30.40;;
20415;SDS011;10367;52.202;5.996;2023-05-07T10:59:33;40.00;;;29.83;;
20415;SDS011;10367;52.202;5.996;2023-05-07T11:02:09;40.03;;;29.53;;
20415;SDS011;10367;52.202;5.996;2023-05-07T11:04:42;38.47;;;29.30;;
20415;SDS011;10367;52.202;5.996;2023-05-07T11:07:20;42.47;;;31.13;;
20415;SDS011;10367;52.202;5.996;2023-05-07T11:10:02;39.93;;;30.10;;
20415;SDS011;10367;52.202;5.996;2023-05-07T11:15:34;35.07;;;29.27;;
20415;SDS011;10367;52.202;5.996;2023-05-07T11:18:14;40.03;;;30.80;;
20415;SDS011;10367;52.202;5.996;2023-05-07T11:20:46;34.27;;;28.70;;
20415;SDS011;10367;52.202;5.996;2023-05-07T11:26:27;34.30;;;29.20;;
20415;SDS011;10367;52.202;5.996;2023-05-07T11:28:57;35.80;;;30.27;;
20415;SDS011;10367;52.202;5.996;2023-05-07T11:31:28;38.80;;;30.47;;
20415;SDS011;10367;52.202;5.996;2023-05-07T11:33:57;34.53;;;30.03;;
20415;SDS011;10367;52.202;5.996;2023-05-07T11:36:30;34.00;;;30.27;;
20415;SDS011;10367;52.202;5.996;2023-05-07T11:39:00;43.13;;;32.13;;
20415;SDS011;10367;52.202;5.996;2023-05-07T11:41:36;38.33;;;29.87;;
20415;SDS011;10367;52.202;5.996;2023-05-07T11:44:08;40.07;;;32.53;;
20415;SDS011;10367;52.202;5.996;2023-05-07T11:46:37;33.90;;;30.03;;
20415;SDS011;10367;52.202;5.996;2023-05-07T11:49:13;34.70;;;29.23;;
20415;SDS011;10367;52.202;5.996;2023-05-07T11:51:44;34.67;;;30.50;;
20415;SDS011;10367;52.202;5.996;2023-05-07T11:54:15;37.97;;;32.20;;
20415;SDS011;10367;52.202;5.996;2023-05-07T11:56:44;33.70;;;29.37;;
20415;SDS011;10367;52.202;5.996;2023-05-07T11:59:17;34.53;;;29.27;;
20415;SDS011;10367;52.202;5.996;2023-05-07T12:01:49;36.30;;;31.10;;
20415;SDS011;10367;52.202;5.996;2023-05-07T12:04:21;35.17;;;29.47;;
20415;SDS011;10367;52.202;5.996;2023-05-07T12:06:54;39.53;;;31.67;;
20415;SDS011;10367;52.202;5.996;2023-05-07T12:09:23;38.37;;;30.47;;
20415;SDS011;10367;52.202;5.996;2023-05-07T12:11:52;36.40;;;30.57;;
20415;SDS011;10367;52.202;5.996;2023-05-07T12:14:26;37.13;;;30.20;;
20415;SDS011;10367;52.202;5.996;2023-05-07T12:16:55;33.43;;;28.90;;
20415;SDS011;10367;52.202;5.996;2023-05-07T12:19:25;34.30;;;30.60;;
20415;SDS011;10367;52.202;5.996;2023-05-07T12:21:55;40.17;;;32.27;;
20415;SDS011;10367;52.202;5.996;2023-05-07T12:24:24;34.53;;;30.83;;
20415;SDS011;10367;52.202;5.996;2023-05-07T12:26:53;37.83;;;31.03;;
20415;SDS011;10367;52.202;5.996;2023-05-07T12:29:22;35.03;;;31.17;;
20415;SDS011;10367;52.202;5.996;2023-05-07T12:31:51;34.03;;;29.97;;
20415;SDS011;10367;52.202;5.996;2023-05-07T12:34:20;34.63;;;30.90;;
20415;SDS011;10367;52.202;5.996;2023-05-07T12:36:50;33.20;;;29.60;;
20415;SDS011;10367;52.202;5.996;2023-05-07T12:39:20;30.50;;;27.50;;
20415;SDS011;10367;52.202;5.996;2023-05-07T12:41:53;34.90;;;31.20;;
20415;SDS011;10367;52.202;5.996;2023-05-07T12:44:22;30.30;;;27.23;;
20415;SDS011;10367;52.202;5.996;2023-05-07T12:46:51;34.90;;;30.53;;
20415;SDS011;10367;52.202;5.996;2023-05-07T12:49:21;32.33;;;28.93;;
20415;SDS011;10367;52.202;5.996;2023-05-07T12:51:54;34.53;;;30.80;;
20415;SDS011;10367;52.202;5.996;2023-05-07T12:54:31;32.67;;;29.27;;
20415;SDS011;10367;52.202;5.996;2023-05-07T12:57:03;37.97;;;31.73;;
20415;SDS011;10367;52.202;5.996;2023-05-07T12:59:33;33.43;;;29.67;;
20415;SDS011;10367;52.202;5.996;2023-05-07T13:02:04;38.90;;;31.00;;
20415;SDS011;10367;52.202;5.996;2023-05-07T13:04:33;34.07;;;30.47;;
20415;SDS011;10367;52.202;5.996;2023-05-07T13:07:03;36.47;;;30.10;;
20415;SDS011;10367;52.202;5.996;2023-05-07T13:09:33;35.53;;;30.43;;
20415;SDS011;10367;52.202;5.996;2023-05-07T13:12:04;35.93;;;31.83;;
20415;SDS011;10367;52.202;5.996;2023-05-07T13:14:33;35.53;;;30.77;;
20415;SDS011;10367;52.202;5.996;2023-05-07T13:17:02;46.23;;;31.93;;
20415;SDS011;10367;52.202;5.996;2023-05-07T13:19:31;33.37;;;28.00;;
20415;SDS011;10367;52.202;5.996;2023-05-07T13:22:05;39.73;;;33.33;;
20415;SDS011;10367;52.202;5.996;2023-05-07T13:24:36;35.43;;;31.60;;
20415;SDS011;10367;52.202;5.996;2023-05-07T13:27:11;39.23;;;31.77;;
20415;SDS011;10367;52.202;5.996;2023-05-07T13:29:43;33.43;;;29.87;;
20415;SDS011;10367;52.202;5.996;2023-05-07T13:32:12;38.13;;;31.60;;
20415;SDS011;10367;52.202;5.996;2023-05-07T13:34:41;38.10;;;32.63;;
20415;SDS011;10367;52.202;5.996;2023-05-07T13:37:10;40.47;;;33.40;;
20415;SDS011;10367;52.202;5.996;2023-05-07T13:39:42;33.03;;;29.43;;
20415;SDS011;10367;52.202;5.996;2023-05-07T13:42:12;43.20;;;34.70;;
20415;SDS011;10367;52.202;5.996;2023-05-07T13:44:41;41.20;;;33.17;;
20415;SDS011;10367;52.202;5.996;2023-05-07T13:47:10;35.20;;;30.23;;
20415;SDS011;10367;52.202;5.996;2023-05-07T13:49:39;34.80;;;31.00;;
20415;SDS011;10367;52.202;5.996;2023-05-07T13:52:11;38.60;;;32.07;;
20415;SDS011;10367;52.202;5.996;2023-05-07T13:54:40;39.00;;;31.57;;
20415;SDS011;10367;52.202;5.996;2023-05-07T13:57:10;39.03;;;31.93;;
20415;SDS011;10367;52.202;5.996;2023-05-07T13:59:42;36.17;;;31.20;;
20415;SDS011;10367;52.202;5.996;2023-05-07T14:02:11;44.87;;;33.20;;
20415;SDS011;10367;52.202;5.996;2023-05-07T14:04:39;34.63;;;30.53;;
20415;SDS011;10367;52.202;5.996;2023-05-07T14:07:08;44.03;;;33.57;;
20415;SDS011;10367;52.202;5.996;2023-05-07T14:09:37;33.77;;;30.00;;
20415;SDS011;10367;52.202;5.996;2023-05-07T14:12:06;41.27;;;31.87;;
20415;SDS011;10367;52.202;5.996;2023-05-07T14:14:38;33.73;;;30.10;;
20415;SDS011;10367;52.202;5.996;2023-05-07T14:17:07;40.50;;;32.17;;
20415;SDS011;10367;52.202;5.996;2023-05-07T14:19:39;38.80;;;31.97;;
20415;SDS011;10367;52.202;5.996;2023-05-07T14:22:10;38.30;;;31.43;;
20415;SDS011;10367;52.202;5.996;2023-05-07T14:24:39;39.70;;;31.83;;
20415;SDS011;10367;52.202;5.996;2023-05-07T14:27:08;39.37;;;32.13;;
20415;SDS011;10367;52.202;5.996;2023-05-07T14:29:38;36.80;;;31.00;;
20415;SDS011;10367;52.202;5.996;2023-05-07T14:32:10;42.77;;;33.37;;
20415;SDS011;10367;52.202;5.996;2023-05-07T14:34:39;31.13;;;27.87;;
20415;SDS011;10367;52.202;5.996;2023-05-07T14:37:07;42.93;;;32.97;;
20415;SDS011;10367;52.202;5.996;2023-05-07T14:39:36;39.27;;;30.73;;
20415;SDS011;10367;52.202;5.996;2023-05-07T14:42:05;42.30;;;31.93;;
20415;SDS011;10367;52.202;5.996;2023-05-07T14:44:34;42.83;;;31.83;;
20415;SDS011;10367;52.202;5.996;2023-05-07T14:47:04;42.83;;;33.07;;
20415;SDS011;10367;52.202;5.996;2023-05-07T14:49:33;37.60;;;30.20;;